CFG2039 KBOS-EDDF
Flight info
| Callsign | CFG2039 |
|---|---|
| Flight time | N/A |
| Altitude | 35000 |
| Route | LBSTA8 LBSTA DCT EBONY/N0485F370 N505B ALLRY/M082F370 DCT 51N050W 53N040W 55N030W 56N020W DCT PIKIL/N0470F370 DCT SOVED DCT KUGUR DCT BELOX/N0469F390 L603 DOLAS DCT NAVPI DCT NOLRU DCT DIXAT DIXAT1D |
| Aircraft | A339/H-SADE1E2E3GHIJ3J5M1P2RWXY/LB2D1 |
Departure
| Time | 2026-05-04 23:19 |
|---|---|
| Airport | Boston Logan International Airport (KBOS) |
Arrival
| Time | N/A |
|---|---|
| Airport | Frankfurt Main Airport (EDDF) |
| Time | Latitude | Longitude | Altitude | Speed | Heading |
|---|---|---|---|---|---|
| 2026-05-04 22:59 | 42.37141 | -71.02007 | 26 ft | 0 kts | 211° |
| 2026-05-04 23:06 | 42.37144 | -71.02005 | 26 ft | 2 kts | 211° |
| 2026-05-04 23:06 | 42.37157 | -71.01994 | 26 ft | 2 kts | 211° |
| 2026-05-04 23:06 | 42.37170 | -71.01984 | 26 ft | 2 kts | 211° |
| 2026-05-04 23:07 | 42.37178 | -71.01977 | 26 ft | 2 kts | 211° |
| 2026-05-04 23:07 | 42.37192 | -71.01970 | 26 ft | 2 kts | 184° |
| 2026-05-04 23:07 | 42.37207 | -71.01971 | 26 ft | 2 kts | 161° |
| 2026-05-04 23:07 | 42.37220 | -71.01981 | 26 ft | 2 kts | 137° |
| 2026-05-04 23:08 | 42.37231 | -71.02001 | 26 ft | 0 kts | 108° |
| 2026-05-04 23:08 | 42.37232 | -71.02006 | 26 ft | 1 kts | 106° |
| 2026-05-04 23:08 | 42.37233 | -71.02009 | 26 ft | 0 kts | 107° |
| 2026-05-04 23:10 | 42.37231 | -71.02001 | 26 ft | 1 kts | 107° |
| 2026-05-04 23:10 | 42.37225 | -71.01975 | 26 ft | 4 kts | 106° |
| 2026-05-04 23:10 | 42.37219 | -71.01938 | 26 ft | 2 kts | 79° |
| 2026-05-04 23:11 | 42.37238 | -71.01922 | 26 ft | 4 kts | 22° |
| 2026-05-04 23:11 | 42.37279 | -71.01895 | 26 ft | 7 kts | 27° |
| 2026-05-04 23:11 | 42.37297 | -71.01829 | 26 ft | 9 kts | 114° |
| 2026-05-04 23:11 | 42.37246 | -71.01759 | 26 ft | 11 kts | 137° |
| 2026-05-04 23:12 | 42.37187 | -71.01683 | 25 ft | 12 kts | 136° |
| 2026-05-04 23:12 | 42.37124 | -71.01599 | 25 ft | 13 kts | 135° |
| 2026-05-04 23:12 | 42.37059 | -71.01508 | 25 ft | 13 kts | 134° |
| 2026-05-04 23:12 | 42.37006 | -71.01437 | 25 ft | 7 kts | 135° |
| 2026-05-04 23:13 | 42.36968 | -71.01385 | 26 ft | 9 kts | 136° |
| 2026-05-04 23:13 | 42.36917 | -71.01319 | 25 ft | 10 kts | 136° |
| 2026-05-04 23:13 | 42.36891 | -71.01234 | 25 ft | 10 kts | 75° |
| 2026-05-04 23:13 | 42.36945 | -71.01157 | 25 ft | 12 kts | 38° |
| 2026-05-04 23:14 | 42.37019 | -71.01089 | 25 ft | 14 kts | 25° |
| 2026-05-04 23:14 | 42.37117 | -71.01028 | 23 ft | 16 kts | 25° |
| 2026-05-04 23:14 | 42.37224 | -71.00957 | 22 ft | 17 kts | 25° |
| 2026-05-04 23:14 | 42.37337 | -71.00891 | 22 ft | 17 kts | 21° |
| 2026-05-04 23:15 | 42.37451 | -71.00831 | 22 ft | 17 kts | 20° |
| 2026-05-04 23:15 | 42.37568 | -71.00776 | 22 ft | 17 kts | 18° |
| 2026-05-04 23:15 | 42.37686 | -71.00720 | 22 ft | 18 kts | 19° |
| 2026-05-04 23:15 | 42.37803 | -71.00663 | 22 ft | 15 kts | 20° |
| 2026-05-04 23:16 | 42.37840 | -71.00616 | 22 ft | 4 kts | 81° |
| 2026-05-04 23:16 | 42.37839 | -71.00600 | 22 ft | 0 kts | 97° |
| 2026-05-04 23:16 | 42.37839 | -71.00599 | 22 ft | 0 kts | 97° |
| 2026-05-04 23:17 | 42.37837 | -71.00577 | 22 ft | 4 kts | 98° |
| 2026-05-04 23:17 | 42.37825 | -71.00513 | 22 ft | 8 kts | 109° |
| 2026-05-04 23:17 | 42.37797 | -71.00473 | 22 ft | 5 kts | 168° |
| 2026-05-04 23:17 | 42.37771 | -71.00480 | 22 ft | 0 kts | 200° |
| 2026-05-04 23:18 | 42.37769 | -71.00481 | 22 ft | 5 kts | 200° |
| 2026-05-04 23:19 | 42.37484 | -71.00619 | 22 ft | 79 kts | 200° |
| 2026-05-04 23:19 | 42.36769 | -71.00963 | 26 ft | 138 kts | 200° |
| 2026-05-04 23:19 | 42.35761 | -71.01437 | 449 ft | 155 kts | 201° |
| 2026-05-04 23:19 | 42.34807 | -71.01850 | 1308 ft | 145 kts | 195° |
| 2026-05-04 23:20 | 42.33822 | -71.01621 | 1979 ft | 154 kts | 156° |
| 2026-05-04 23:20 | 42.33037 | -71.00536 | 2328 ft | 173 kts | 136° |
| 2026-05-04 23:20 | 42.32314 | -70.99143 | 2613 ft | 188 kts | 133° |
| 2026-05-04 23:20 | 42.31536 | -70.97623 | 2909 ft | 203 kts | 131° |
| 2026-05-04 23:21 | 42.31039 | -70.95729 | 3181 ft | 230 kts | 91° |
| 2026-05-04 23:21 | 42.31293 | -70.93502 | 3484 ft | 248 kts | 78° |
| 2026-05-04 23:21 | 42.31720 | -70.91143 | 3790 ft | 265 kts | 76° |
| 2026-05-04 23:21 | 42.32171 | -70.88647 | 4103 ft | 283 kts | 77° |
| 2026-05-04 23:22 | 42.32613 | -70.85986 | 4513 ft | 297 kts | 77° |
| 2026-05-04 23:22 | 42.33035 | -70.83253 | 5202 ft | 299 kts | 77° |
| 2026-05-04 23:22 | 42.33446 | -70.80509 | 5907 ft | 300 kts | 77° |
| 2026-05-04 23:22 | 42.33887 | -70.77724 | 6595 ft | 301 kts | 71° |
| 2026-05-04 23:23 | 42.34918 | -70.75329 | 7237 ft | 293 kts | 37° |
| 2026-05-04 23:23 | 42.36639 | -70.74065 | 7931 ft | 280 kts | 10° |
| 2026-05-04 23:23 | 42.38539 | -70.73394 | 8592 ft | 281 kts | 9° |
| 2026-05-04 23:23 | 42.40448 | -70.72694 | 9248 ft | 285 kts | 11° |
| 2026-05-04 23:24 | 42.42368 | -70.71941 | 9878 ft | 287 kts | 11° |
| 2026-05-04 23:24 | 42.44284 | -70.71165 | 10439 ft | 291 kts | 10° |
| 2026-05-04 23:24 | 42.46296 | -70.70499 | 10734 ft | 305 kts | 7° |
| 2026-05-04 23:24 | 42.48406 | -70.69870 | 11001 ft | 320 kts | 7° |
| 2026-05-04 23:25 | 42.50658 | -70.69204 | 11269 ft | 336 kts | 7° |
| 2026-05-04 23:25 | 42.53012 | -70.68504 | 11536 ft | 351 kts | 8° |
| 2026-05-04 23:25 | 42.55437 | -70.67777 | 11820 ft | 366 kts | 8° |
| 2026-05-04 23:25 | 42.57964 | -70.67016 | 12198 ft | 379 kts | 8° |
| 2026-05-04 23:26 | 42.60540 | -70.66238 | 12726 ft | 384 kts | 8° |
| 2026-05-04 23:26 | 42.63172 | -70.65440 | 13299 ft | 388 kts | 8° |
| 2026-05-04 23:26 | 42.65837 | -70.64632 | 13959 ft | 392 kts | 8° |
| 2026-05-04 23:26 | 42.68514 | -70.63899 | 14532 ft | 395 kts | 5° |
| 2026-05-04 23:27 | 42.71218 | -70.63281 | 15140 ft | 397 kts | 4° |
| 2026-05-04 23:27 | 42.73956 | -70.62683 | 15734 ft | 400 kts | 4° |
| 2026-05-04 23:27 | 42.76689 | -70.62071 | 16383 ft | 403 kts | 6° |
| 2026-05-04 23:27 | 42.79359 | -70.60850 | 16934 ft | 416 kts | 21° |
| 2026-05-04 23:28 | 42.81789 | -70.58622 | 17501 ft | 428 kts | 37° |
| 2026-05-04 23:28 | 42.83857 | -70.55627 | 18090 ft | 434 kts | 44° |
| 2026-05-04 23:28 | 42.85843 | -70.52502 | 18650 ft | 438 kts | 45° |
| 2026-05-04 23:28 | 42.87873 | -70.49283 | 19206 ft | 441 kts | 44° |
| 2026-05-04 23:29 | 42.89885 | -70.46102 | 19760 ft | 444 kts | 44° |
| 2026-05-04 23:29 | 42.91916 | -70.42905 | 20312 ft | 446 kts | 44° |
| 2026-05-04 23:29 | 42.93973 | -70.39676 | 20823 ft | 449 kts | 44° |
| 2026-05-04 23:29 | 42.96051 | -70.36418 | 21326 ft | 452 kts | 44° |
| 2026-05-04 23:30 | 42.98120 | -70.33178 | 21833 ft | 455 kts | 44° |
| 2026-05-04 23:30 | 43.00245 | -70.29853 | 22317 ft | 457 kts | 44° |
| 2026-05-04 23:30 | 43.02316 | -70.26604 | 22793 ft | 459 kts | 44° |
| 2026-05-04 23:30 | 43.04450 | -70.23254 | 23226 ft | 462 kts | 44° |
| 2026-05-04 23:31 | 43.06576 | -70.19916 | 23664 ft | 464 kts | 44° |
| 2026-05-04 23:31 | 43.08694 | -70.16589 | 24065 ft | 467 kts | 44° |
| 2026-05-04 23:31 | 43.10818 | -70.13238 | 24496 ft | 469 kts | 44° |
| 2026-05-04 23:31 | 43.12937 | -70.09895 | 24942 ft | 470 kts | 44° |
| 2026-05-04 23:32 | 43.15084 | -70.06498 | 25389 ft | 472 kts | 43° |
| 2026-05-04 23:32 | 43.17258 | -70.03057 | 25814 ft | 473 kts | 43° |
| 2026-05-04 23:32 | 43.19431 | -69.99631 | 26197 ft | 475 kts | 43° |
| 2026-05-04 23:32 | 43.21606 | -69.96198 | 26571 ft | 477 kts | 43° |
| 2026-05-04 23:33 | 43.23821 | -69.92690 | 26941 ft | 479 kts | 43° |
| 2026-05-04 23:33 | 43.25992 | -69.89243 | 27287 ft | 481 kts | 43° |
| 2026-05-04 23:33 | 43.28175 | -69.85775 | 27644 ft | 482 kts | 43° |
| 2026-05-04 23:33 | 43.30399 | -69.82237 | 27983 ft | 484 kts | 43° |
| 2026-05-04 23:34 | 43.32580 | -69.78760 | 28459 ft | 482 kts | 43° |
| 2026-05-04 23:34 | 43.34748 | -69.75292 | 28993 ft | 480 kts | 43° |
| 2026-05-04 23:34 | 43.36917 | -69.71822 | 29502 ft | 477 kts | 42° |
| 2026-05-04 23:34 | 43.39097 | -69.68327 | 30012 ft | 475 kts | 42° |
| 2026-05-04 23:35 | 43.41245 | -69.64889 | 30482 ft | 473 kts | 42° |
| 2026-05-04 23:35 | 43.43380 | -69.61467 | 30970 ft | 470 kts | 42° |
| 2026-05-04 23:35 | 43.45528 | -69.58015 | 31430 ft | 467 kts | 41° |
| 2026-05-04 23:35 | 43.47620 | -69.54653 | 31844 ft | 465 kts | 41° |
| 2026-05-04 23:36 | 43.49746 | -69.51235 | 32190 ft | 465 kts | 41° |
| 2026-05-04 23:36 | 43.51850 | -69.47849 | 32463 ft | 466 kts | 41° |
| 2026-05-04 23:36 | 43.53956 | -69.44459 | 32750 ft | 466 kts | 41° |
| 2026-05-04 23:36 | 43.56083 | -69.41026 | 33080 ft | 465 kts | 41° |
| 2026-05-04 23:37 | 43.58157 | -69.37676 | 33409 ft | 465 kts | 41° |
| 2026-05-04 23:37 | 43.60255 | -69.34280 | 33638 ft | 466 kts | 42° |
| 2026-05-04 23:37 | 43.62373 | -69.30852 | 33766 ft | 469 kts | 42° |
| 2026-05-04 23:37 | 43.64488 | -69.27426 | 33983 ft | 470 kts | 42° |
| 2026-05-04 23:38 | 43.66603 | -69.23991 | 34200 ft | 470 kts | 42° |
| 2026-05-04 23:38 | 43.68720 | -69.20547 | 34338 ft | 473 kts | 42° |
| 2026-05-04 23:38 | 43.70855 | -69.17072 | 34476 ft | 474 kts | 42° |
| 2026-05-04 23:38 | 43.72986 | -69.13599 | 34642 ft | 475 kts | 42° |
| 2026-05-04 23:39 | 43.75142 | -69.10085 | 34780 ft | 477 kts | 42° |
| 2026-05-04 23:39 | 43.77288 | -69.06578 | 34803 ft | 479 kts | 42° |
| 2026-05-04 23:39 | 43.81591 | -68.99534 | 34808 ft | 480 kts | 42° |
| 2026-05-04 23:40 | 43.85910 | -68.92442 | 34808 ft | 481 kts | 42° |
| 2026-05-04 23:40 | 43.90237 | -68.85327 | 34817 ft | 481 kts | 42° |
| 2026-05-04 23:41 | 43.94564 | -68.78193 | 34817 ft | 481 kts | 42° |
| 2026-05-04 23:41 | 43.98894 | -68.71034 | 34803 ft | 481 kts | 42° |
| 2026-05-04 23:42 | 44.03217 | -68.63872 | 34792 ft | 482 kts | 42° |
| 2026-05-04 23:42 | 44.07556 | -68.56667 | 34792 ft | 483 kts | 42° |
| 2026-05-04 23:43 | 44.11841 | -68.49528 | 34812 ft | 482 kts | 42° |
| 2026-05-04 23:43 | 44.16127 | -68.42371 | 34784 ft | 483 kts | 43° |
| 2026-05-04 23:44 | 44.20371 | -68.35266 | 34793 ft | 483 kts | 43° |
| 2026-05-04 23:44 | 44.24633 | -68.28117 | 34798 ft | 483 kts | 43° |
| 2026-05-04 23:45 | 44.28930 | -68.20883 | 34803 ft | 484 kts | 43° |
| 2026-05-04 23:45 | 44.33236 | -68.13623 | 34806 ft | 484 kts | 44° |
| 2026-05-04 23:46 | 44.37536 | -68.06369 | 34798 ft | 485 kts | 44° |
| 2026-05-04 23:46 | 44.41803 | -67.99117 | 34771 ft | 485 kts | 44° |
| 2026-05-04 23:47 | 44.46067 | -67.91856 | 34788 ft | 486 kts | 44° |
| 2026-05-04 23:47 | 44.50404 | -67.84463 | 34804 ft | 485 kts | 44° |
| 2026-05-04 23:48 | 44.54701 | -67.77126 | 34786 ft | 486 kts | 44° |
| 2026-05-04 23:48 | 44.59022 | -67.69724 | 34798 ft | 487 kts | 44° |
| 2026-05-04 23:49 | 44.63326 | -67.62334 | 34798 ft | 487 kts | 44° |
| 2026-05-04 23:49 | 44.67640 | -67.54907 | 34771 ft | 488 kts | 44° |
| 2026-05-04 23:50 | 44.71951 | -67.47466 | 34768 ft | 489 kts | 44° |
| 2026-05-04 23:50 | 44.76245 | -67.40035 | 34771 ft | 490 kts | 44° |
| 2026-05-04 23:51 | 44.80549 | -67.32570 | 34825 ft | 495 kts | 45° |
| 2026-05-04 23:51 | 44.84930 | -67.24949 | 34939 ft | 501 kts | 45° |
| 2026-05-04 23:52 | 44.89318 | -67.17268 | 35084 ft | 506 kts | 46° |
| 2026-05-04 23:52 | 44.91417 | -67.13264 | 35208 ft | 510 kts | 50° |
| 2026-05-04 23:52 | 44.93434 | -67.09140 | 35367 ft | 510 kts | 51° |
| 2026-05-04 23:53 | 44.95400 | -67.05044 | 35501 ft | 510 kts | 51° |
| 2026-05-04 23:53 | 44.97389 | -67.00880 | 35627 ft | 511 kts | 51° |
| 2026-05-04 23:53 | 44.99379 | -66.96708 | 35734 ft | 512 kts | 51° |
| 2026-05-04 23:53 | 45.01387 | -66.92497 | 35879 ft | 512 kts | 51° |
| 2026-05-04 23:54 | 45.03379 | -66.88314 | 36007 ft | 513 kts | 52° |
| 2026-05-04 23:54 | 45.05373 | -66.84131 | 36107 ft | 514 kts | 52° |
| 2026-05-04 23:54 | 45.07377 | -66.79917 | 36256 ft | 514 kts | 52° |
| 2026-05-04 23:54 | 45.09354 | -66.75761 | 36384 ft | 514 kts | 52° |
| 2026-05-04 23:55 | 45.11359 | -66.71538 | 36501 ft | 515 kts | 52° |
| 2026-05-04 23:55 | 45.13341 | -66.67358 | 36595 ft | 516 kts | 52° |
| 2026-05-04 23:55 | 45.17353 | -66.58882 | 36786 ft | 517 kts | 52° |
| 2026-05-04 23:56 | 45.19372 | -66.54602 | 36792 ft | 518 kts | 52° |
| 2026-05-04 23:56 | 45.23359 | -66.46133 | 36788 ft | 517 kts | 52° |
| 2026-05-04 23:57 | 45.27326 | -66.37690 | 36782 ft | 517 kts | 52° |
| 2026-05-04 23:57 | 45.31319 | -66.29165 | 36770 ft | 518 kts | 53° |
| 2026-05-04 23:58 | 45.35309 | -66.20615 | 36763 ft | 519 kts | 53° |
| 2026-05-04 23:58 | 45.39308 | -66.12017 | 36766 ft | 519 kts | 53° |
| 2026-05-04 23:59 | 45.43267 | -66.03485 | 36771 ft | 519 kts | 53° |
| 2026-05-04 23:59 | 45.47245 | -65.94889 | 36767 ft | 520 kts | 53° |
| 2026-05-05 00:00 | 45.51219 | -65.86279 | 36762 ft | 520 kts | 53° |
| 2026-05-05 00:00 | 45.55189 | -65.77646 | 36764 ft | 520 kts | 53° |
| 2026-05-05 00:01 | 45.59139 | -65.69027 | 36764 ft | 520 kts | 53° |
| 2026-05-05 00:01 | 45.63077 | -65.60411 | 36750 ft | 518 kts | 53° |
| 2026-05-05 00:02 | 45.67009 | -65.51783 | 36745 ft | 518 kts | 54° |
| 2026-05-05 00:02 | 45.70952 | -65.43103 | 36736 ft | 517 kts | 54° |
| 2026-05-05 00:03 | 45.74886 | -65.34417 | 36741 ft | 518 kts | 55° |
| 2026-05-05 00:03 | 45.78817 | -65.25713 | 36714 ft | 518 kts | 55° |
| 2026-05-05 00:04 | 45.82709 | -65.17061 | 36736 ft | 517 kts | 54° |
| 2026-05-05 00:04 | 45.86601 | -65.08384 | 36720 ft | 516 kts | 55° |
| 2026-05-05 00:05 | 45.90493 | -64.99687 | 36714 ft | 517 kts | 55° |
| 2026-05-05 00:05 | 45.94994 | -64.89592 | 36735 ft | 515 kts | 55° |
| 2026-05-05 00:06 | 45.98219 | -64.82336 | 36730 ft | 515 kts | 55° |
| 2026-05-05 00:06 | 46.02060 | -64.73673 | 36736 ft | 516 kts | 55° |
| 2026-05-05 00:07 | 46.05909 | -64.64961 | 36735 ft | 516 kts | 55° |
| 2026-05-05 00:07 | 46.09757 | -64.56226 | 36716 ft | 516 kts | 55° |
| 2026-05-05 00:08 | 46.13566 | -64.47548 | 36710 ft | 517 kts | 55° |
| 2026-05-05 00:08 | 46.17408 | -64.38772 | 36715 ft | 517 kts | 55° |
| 2026-05-05 00:09 | 46.21230 | -64.30016 | 36712 ft | 517 kts | 56° |
| 2026-05-05 00:09 | 46.25048 | -64.21238 | 36704 ft | 518 kts | 56° |
| 2026-05-05 00:10 | 46.28877 | -64.12407 | 36707 ft | 518 kts | 57° |
| 2026-05-05 00:10 | 46.32700 | -64.03559 | 36721 ft | 517 kts | 57° |
| 2026-05-05 00:11 | 46.36488 | -63.94766 | 36705 ft | 516 kts | 57° |
| 2026-05-05 00:11 | 46.40261 | -63.85981 | 36696 ft | 516 kts | 57° |
| 2026-05-05 00:12 | 46.44040 | -63.77155 | 36701 ft | 516 kts | 57° |
| 2026-05-05 00:12 | 46.47807 | -63.68327 | 36697 ft | 517 kts | 57° |
| 2026-05-05 00:13 | 46.51599 | -63.59415 | 36692 ft | 517 kts | 57° |
| 2026-05-05 00:13 | 46.55356 | -63.50555 | 36700 ft | 518 kts | 57° |
| 2026-05-05 00:14 | 46.59117 | -63.41656 | 36688 ft | 517 kts | 57° |
| 2026-05-05 00:14 | 46.62849 | -63.32798 | 36681 ft | 516 kts | 58° |
| 2026-05-05 00:15 | 46.66617 | -63.23825 | 36687 ft | 516 kts | 58° |
| 2026-05-05 00:15 | 46.70296 | -63.15037 | 36682 ft | 516 kts | 58° |
| 2026-05-05 00:16 | 46.74020 | -63.06113 | 36677 ft | 516 kts | 58° |
| 2026-05-05 00:16 | 46.77738 | -62.97174 | 36672 ft | 516 kts | 58° |
| 2026-05-05 00:17 | 46.81480 | -62.88146 | 36680 ft | 516 kts | 58° |
| 2026-05-05 00:17 | 46.85180 | -62.79190 | 36681 ft | 516 kts | 58° |
| 2026-05-05 00:18 | 46.88900 | -62.70158 | 36680 ft | 516 kts | 58° |
| 2026-05-05 00:18 | 46.92590 | -62.61166 | 36676 ft | 517 kts | 58° |
| 2026-05-05 00:19 | 46.96293 | -62.52117 | 36675 ft | 516 kts | 58° |
| 2026-05-05 00:19 | 46.99974 | -62.43092 | 36662 ft | 515 kts | 58° |
| 2026-05-05 00:20 | 47.03641 | -62.34069 | 36659 ft | 515 kts | 59° |
| 2026-05-05 00:20 | 47.07306 | -62.25022 | 36656 ft | 516 kts | 59° |
| 2026-05-05 00:21 | 47.10954 | -62.15986 | 36657 ft | 517 kts | 59° |
| 2026-05-05 00:21 | 47.14599 | -62.06927 | 36653 ft | 517 kts | 59° |
| 2026-05-05 00:22 | 47.18261 | -61.97801 | 36655 ft | 518 kts | 59° |
| 2026-05-05 00:22 | 47.21929 | -61.88623 | 36637 ft | 518 kts | 59° |
| 2026-05-05 00:23 | 47.25586 | -61.79441 | 36633 ft | 517 kts | 59° |
| 2026-05-05 00:23 | 47.29197 | -61.70343 | 36625 ft | 517 kts | 59° |
| 2026-05-05 00:24 | 47.32823 | -61.61182 | 36626 ft | 518 kts | 59° |
| 2026-05-05 00:24 | 47.36447 | -61.51994 | 36615 ft | 518 kts | 59° |
| 2026-05-05 00:25 | 47.40046 | -61.42838 | 36616 ft | 518 kts | 59° |
| 2026-05-05 00:25 | 47.43645 | -61.33651 | 36611 ft | 518 kts | 60° |
| 2026-05-05 00:26 | 47.47224 | -61.24482 | 36609 ft | 518 kts | 60° |
| 2026-05-05 00:26 | 47.50810 | -61.15263 | 36603 ft | 519 kts | 60° |
| 2026-05-05 00:27 | 47.54383 | -61.06044 | 36609 ft | 519 kts | 60° |
| 2026-05-05 00:27 | 47.57975 | -60.96746 | 36597 ft | 519 kts | 60° |
| 2026-05-05 00:28 | 47.61531 | -60.87511 | 36597 ft | 519 kts | 60° |
| 2026-05-05 00:28 | 47.65098 | -60.78214 | 36577 ft | 519 kts | 60° |
| 2026-05-05 00:29 | 47.68636 | -60.68964 | 36572 ft | 519 kts | 60° |
| 2026-05-05 00:29 | 47.70402 | -60.64333 | 36470 ft | 515 kts | 60° |
| 2026-05-05 00:29 | 47.72151 | -60.59737 | 35832 ft | 512 kts | 60° |